createdAt,value
2018-06-20T00:01:09.411Z,14.70
2018-06-20T00:03:43.377Z,14.70
2018-06-20T00:06:17.377Z,14.76
2018-06-20T00:08:52.074Z,14.60
2018-06-20T00:11:26.099Z,14.69
2018-06-20T00:14:00.045Z,14.40
2018-06-20T00:16:34.218Z,14.14
2018-06-20T00:19:08.272Z,14.15
2018-06-20T00:21:42.353Z,14.18
2018-06-20T00:24:16.235Z,14.10
2018-06-20T00:26:50.166Z,13.97
2018-06-20T00:29:24.107Z,13.54
2018-06-20T00:31:58.120Z,13.38
2018-06-20T00:34:32.047Z,13.40
2018-06-20T00:37:06.118Z,13.40
2018-06-20T00:39:40.295Z,13.55
2018-06-20T00:42:14.307Z,13.76
2018-06-20T00:44:48.465Z,13.85
2018-06-20T00:47:22.526Z,13.89
2018-06-20T00:49:56.590Z,14.03
2018-06-20T00:52:30.561Z,14.07
2018-06-20T00:55:04.509Z,14.13
2018-06-20T00:57:38.594Z,14.18
2018-06-20T01:00:12.712Z,14.18
2018-06-20T01:02:46.731Z,14.07
2018-06-20T01:05:20.583Z,14.17
2018-06-20T01:07:54.615Z,13.93
2018-06-20T01:10:28.531Z,13.48
2018-06-20T01:13:02.615Z,13.28
2018-06-20T01:15:36.597Z,13.13
2018-06-20T01:18:10.674Z,13.13
2018-06-20T01:20:44.649Z,12.82
2018-06-20T01:23:18.785Z,12.62
2018-06-20T01:25:52.771Z,12.71
2018-06-20T01:28:26.819Z,12.72
2018-06-20T01:31:00.786Z,12.87
2018-06-20T01:33:34.847Z,13.00
2018-06-20T01:36:08.845Z,12.94
2018-06-20T01:38:42.847Z,12.88
2018-06-20T01:41:16.802Z,12.77
2018-06-20T01:43:50.855Z,12.96
2018-06-20T01:46:24.963Z,13.14
2018-06-20T01:48:59.143Z,12.88
2018-06-20T01:51:33.095Z,12.67
2018-06-20T01:54:07.135Z,12.39
2018-06-20T01:56:41.046Z,12.48
2018-06-20T01:59:15.068Z,12.41
2018-06-20T02:01:49.052Z,12.59
2018-06-20T02:04:23.075Z,12.75
2018-06-20T02:06:57.163Z,12.87
2018-06-20T02:09:31.181Z,13.07
2018-06-20T02:12:05.207Z,13.15
2018-06-20T02:14:39.195Z,13.14
2018-06-20T02:17:13.079Z,13.14
2018-06-20T02:19:47.224Z,13.27
2018-06-20T02:22:21.187Z,13.26
2018-06-20T02:24:55.107Z,13.22
2018-06-20T02:27:29.106Z,13.20
2018-06-20T02:30:03.488Z,13.18
2018-06-20T02:32:37.331Z,13.06
2018-06-20T02:35:11.418Z,12.82
2018-06-20T02:37:45.464Z,12.84
2018-06-20T02:40:19.486Z,12.53
2018-06-20T02:42:53.512Z,12.70
2018-06-20T02:45:27.764Z,12.56
2018-06-20T02:48:01.746Z,12.02
2018-06-20T02:50:35.674Z,12.17
2018-06-20T02:53:09.551Z,12.40
2018-06-20T02:55:43.661Z,12.27
2018-06-20T02:58:17.624Z,12.22
2018-06-20T03:00:51.837Z,12.11
2018-06-20T03:03:25.670Z,12.27
2018-06-20T03:05:59.860Z,12.37
2018-06-20T03:08:33.791Z,12.24
2018-06-20T03:11:07.860Z,12.32
2018-06-20T03:13:41.836Z,12.34
2018-06-20T03:16:15.929Z,12.29
2018-06-20T03:18:50.072Z,12.31
2018-06-20T03:21:24.097Z,12.20
2018-06-20T03:23:58.174Z,12.33
2018-06-20T03:26:32.588Z,12.44
2018-06-20T03:29:06.527Z,12.46
2018-06-20T03:31:41.717Z,12.68
2018-06-20T03:34:15.991Z,12.81
2018-06-20T03:36:50.141Z,13.20
2018-06-20T03:39:24.069Z,13.27
2018-06-20T03:41:58.118Z,13.40
2018-06-20T03:44:32.124Z,13.49
2018-06-20T03:47:06.102Z,13.55
2018-06-20T03:49:40.294Z,13.70
2018-06-20T03:52:14.551Z,13.81
2018-06-20T03:54:48.600Z,13.91
2018-06-20T03:57:22.543Z,14.03
2018-06-20T03:59:56.455Z,14.13
2018-06-20T04:02:30.461Z,14.25
2018-06-20T04:05:07.882Z,14.24
2018-06-20T04:07:42.449Z,14.24
2018-06-20T04:10:16.537Z,14.23
2018-06-20T04:12:50.621Z,14.13
2018-06-20T04:15:24.534Z,14.24
2018-06-20T04:17:58.546Z,14.36
2018-06-20T04:20:32.469Z,14.26
2018-06-20T04:23:06.499Z,14.29
2018-06-20T04:25:40.523Z,14.49
2018-06-20T04:28:14.603Z,14.76
2018-06-20T04:30:48.572Z,15.01
2018-06-20T04:33:22.493Z,15.07
2018-06-20T04:35:56.708Z,15.31
2018-06-20T04:38:24.767Z,15.48
2018-06-20T04:40:52.682Z,15.34
2018-06-20T04:43:20.579Z,15.55
2018-06-20T04:45:48.570Z,15.69
2018-06-20T04:48:16.593Z,15.97
2018-06-20T04:50:46.742Z,15.42
2018-06-20T04:53:14.699Z,15.38
2018-06-20T04:55:42.691Z,15.75
2018-06-20T04:58:10.620Z,15.92
2018-06-20T05:00:40.976Z,16.05
2018-06-20T05:03:08.996Z,16.15
2018-06-20T05:05:36.957Z,16.43
2018-06-20T05:08:04.964Z,16.84
2018-06-20T05:10:32.873Z,17.21
2018-06-20T05:13:00.817Z,17.42
2018-06-20T05:15:28.795Z,16.99
2018-06-20T05:17:56.752Z,17.08
2018-06-20T05:20:24.667Z,17.52
2018-06-20T05:22:52.683Z,17.49
2018-06-20T05:25:20.664Z,17.58
2018-06-20T05:27:48.639Z,17.83
2018-06-20T05:30:16.590Z,17.76
2018-06-20T05:32:44.584Z,17.59
2018-06-20T05:35:12.468Z,17.40
2018-06-20T05:37:40.711Z,17.53
2018-06-20T05:40:08.753Z,17.81
2018-06-20T05:42:37.247Z,17.93
2018-06-20T05:45:05.327Z,18.05
2018-06-20T05:47:33.257Z,18.30
2018-06-20T05:50:01.151Z,18.20
2018-06-20T05:52:31.138Z,18.53
2018-06-20T05:54:59.559Z,18.74
2018-06-20T05:57:27.556Z,18.57
2018-06-20T05:59:55.537Z,18.46
2018-06-20T06:02:25.778Z,18.60
2018-06-20T06:04:53.760Z,18.92
2018-06-20T06:07:21.768Z,18.99
2018-06-20T06:09:49.689Z,19.34
2018-06-20T06:12:17.633Z,19.62
2018-06-20T06:14:45.625Z,19.68
2018-06-20T06:17:15.659Z,19.65
2018-06-20T06:19:43.774Z,19.65
2018-06-20T06:22:13.453Z,19.54
2018-06-20T06:24:41.370Z,19.38
2018-06-20T06:27:09.291Z,19.50
2018-06-20T06:29:37.305Z,19.71
2018-06-20T06:32:05.253Z,19.98
2018-06-20T06:34:33.179Z,19.91
2018-06-20T06:37:01.208Z,20.12
2018-06-20T06:39:29.221Z,20.36
2018-06-20T06:41:57.153Z,20.53
2018-06-20T06:44:37.447Z,20.63
2018-06-20T06:47:05.734Z,20.73
2018-06-20T06:49:35.973Z,20.94
2018-06-20T06:52:07.725Z,21.02
2018-06-20T06:54:38.033Z,21.44
2018-06-20T06:57:07.747Z,21.81
2018-06-20T06:59:42.163Z,21.74
2018-06-20T07:02:11.667Z,21.20
2018-06-20T07:04:39.773Z,20.49
2018-06-20T07:07:07.864Z,21.14
2018-06-20T07:09:35.875Z,21.46
2018-06-20T07:12:03.848Z,21.53
2018-06-20T07:14:31.755Z,21.88
2018-06-20T07:17:04.396Z,21.98
2018-06-20T07:19:34.534Z,21.86
2018-06-20T07:22:02.510Z,21.85
2018-06-20T07:24:30.570Z,21.95
2018-06-20T07:26:59.421Z,22.02
2018-06-20T07:29:27.574Z,21.80
2018-06-20T07:31:59.559Z,21.93
2018-06-20T07:34:28.341Z,22.00
2018-06-20T07:36:57.168Z,22.11
2018-06-20T07:39:27.785Z,22.03
2018-06-20T07:41:56.350Z,21.63
2018-06-20T07:44:24.531Z,22.11
2018-06-20T07:46:52.552Z,22.56
2018-06-20T07:49:20.481Z,22.82
2018-06-20T07:51:48.432Z,23.04
2018-06-20T07:54:16.460Z,23.62
2018-06-20T07:56:47.455Z,23.93
2018-06-20T07:59:15.750Z,24.23
2018-06-20T08:02:00.351Z,24.75
2018-06-20T08:04:34.962Z,25.15
2018-06-20T08:07:09.136Z,25.69
2018-06-20T08:09:42.863Z,26.39
2018-06-20T08:12:16.717Z,25.54
2018-06-20T08:14:50.976Z,25.59
2018-06-20T08:17:25.559Z,25.63
2018-06-20T08:19:56.996Z,25.94
2018-06-20T08:22:25.914Z,25.92
2018-06-20T08:25:03.597Z,25.51
2018-06-20T08:27:32.707Z,25.28
2018-06-20T08:30:16.402Z,25.41
2018-06-20T08:32:44.418Z,25.94
2018-06-20T08:35:12.355Z,26.29
2018-06-20T08:37:40.324Z,25.97
2018-06-20T08:40:08.251Z,26.19
2018-06-20T08:42:36.191Z,26.34
2018-06-20T08:45:04.222Z,25.94
2018-06-20T08:47:32.148Z,25.95
2018-06-20T08:50:00.076Z,26.16
2018-06-20T08:52:28.171Z,26.85
2018-06-20T08:54:56.111Z,27.46
2018-06-20T08:57:24.146Z,27.39
2018-06-20T08:59:52.441Z,27.28
2018-06-20T09:02:22.914Z,26.11
2018-06-20T09:07:56.972Z,25.51
2018-06-20T09:10:30.501Z,25.25
2018-06-20T09:13:03.847Z,25.11
2018-06-20T09:15:37.275Z,25.11
2018-06-20T09:18:11.236Z,25.46
2018-06-20T09:20:39.181Z,26.09
2018-06-20T09:23:08.860Z,26.50
2018-06-20T09:25:37.265Z,26.84
2018-06-20T09:28:06.253Z,27.26
2018-06-20T09:30:34.349Z,27.02
2018-06-20T09:33:03.526Z,26.94
2018-06-20T09:35:31.532Z,27.53
2018-06-20T09:38:06.863Z,27.97
2018-06-20T09:40:34.890Z,27.97
2018-06-20T09:43:02.956Z,27.96
2018-06-20T09:45:31.018Z,28.06
2018-06-20T09:47:58.947Z,28.38
2018-06-20T09:50:32.454Z,28.60
2018-06-20T09:53:00.371Z,28.76
2018-06-20T09:55:28.350Z,28.80
2018-06-20T09:57:56.520Z,29.05
2018-06-20T10:00:29.807Z,28.70
2018-06-20T10:03:03.746Z,27.78
2018-06-20T10:05:37.104Z,26.70
2018-06-20T10:08:10.723Z,27.25
2018-06-20T10:10:44.024Z,27.65
2018-06-20T10:13:14.997Z,28.10
2018-06-20T10:15:42.999Z,27.49
2018-06-20T10:18:10.919Z,26.58
2018-06-20T10:20:38.951Z,26.10
2018-06-20T10:23:06.916Z,26.14
2018-06-20T10:25:34.827Z,26.61
2018-06-20T10:28:02.806Z,27.28
2018-06-20T10:30:30.722Z,27.85
2018-06-20T10:32:58.642Z,27.76
2018-06-20T10:35:26.615Z,28.13
2018-06-20T10:37:54.560Z,27.56
2018-06-20T10:40:23.519Z,28.53
2018-06-20T10:42:51.534Z,28.70
2018-06-20T10:45:24.839Z,28.51
2018-06-20T10:47:52.831Z,27.39
2018-06-20T10:50:20.921Z,27.44
2018-06-20T10:52:48.819Z,27.87
2018-06-20T10:55:17.539Z,28.48
2018-06-20T10:57:50.946Z,28.62
2018-06-20T11:00:24.604Z,28.26
2018-06-20T11:02:58.157Z,28.58
2018-06-20T11:05:31.635Z,27.79
2018-06-20T11:08:04.965Z,27.56
2018-06-20T11:10:38.272Z,27.23
2018-06-20T11:13:09.104Z,27.23
2018-06-20T11:15:37.023Z,26.45
2018-06-20T11:18:05.208Z,26.67
2018-06-20T11:20:38.648Z,26.72
2018-06-20T11:23:06.603Z,26.89
2018-06-20T11:25:34.551Z,27.16
2018-06-20T11:28:06.966Z,27.42
2018-06-20T11:30:34.963Z,27.68
2018-06-20T11:33:02.928Z,27.38
2018-06-20T11:35:30.905Z,26.88
2018-06-20T11:37:59.071Z,26.59
2018-06-20T11:40:27.013Z,27.49
2018-06-20T11:42:54.962Z,28.52
2018-06-20T11:45:23.026Z,29.01
2018-06-20T11:47:50.982Z,28.52
2018-06-20T11:50:18.946Z,28.21
2018-06-20T11:52:52.600Z,28.01
2018-06-20T11:55:25.888Z,28.72
2018-06-20T11:57:58.371Z,29.28
2018-06-20T12:00:32.075Z,29.72
2018-06-20T12:03:05.595Z,29.17
2018-06-20T12:05:39.007Z,28.42
2018-06-20T12:08:12.361Z,27.95
2018-06-20T12:10:45.615Z,26.91
2018-06-20T12:13:19.124Z,26.74
2018-06-20T12:15:52.500Z,26.55
2018-06-20T12:18:25.931Z,26.40
2018-06-20T12:20:59.278Z,26.74
2018-06-20T12:23:32.790Z,27.46
2018-06-20T12:26:06.125Z,27.10
2018-06-20T12:28:39.721Z,26.87
2018-06-20T12:31:13.166Z,27.87
2018-06-20T12:33:46.605Z,28.55
2018-06-20T12:36:20.075Z,28.68
2018-06-20T12:38:53.537Z,28.39
2018-06-20T12:43:33.514Z,28.06
2018-06-20T12:46:01.770Z,28.83
2018-06-20T12:48:29.724Z,29.28
2018-06-20T12:50:57.651Z,28.59
2018-06-20T12:53:25.604Z,28.37
2018-06-20T12:55:53.553Z,27.83
2018-06-20T12:58:21.515Z,27.81
2018-06-20T13:00:49.551Z,27.51
2018-06-20T13:03:17.460Z,27.76
2018-06-20T13:05:45.408Z,27.80
2018-06-20T13:08:13.411Z,27.87
2018-06-20T13:10:41.327Z,28.25
2018-06-20T13:13:09.248Z,28.55
2018-06-20T13:15:37.209Z,28.43
2018-06-20T13:18:05.148Z,29.16
2018-06-20T13:20:33.076Z,29.74
2018-06-20T13:23:01.031Z,30.20
2018-06-20T13:25:28.972Z,30.49
2018-06-20T13:27:56.986Z,29.83
2018-06-20T13:30:25.027Z,29.47
2018-06-20T13:32:58.327Z,28.29
2018-06-20T13:35:31.688Z,27.73
2018-06-20T13:38:05.131Z,29.07
2018-06-20T13:40:38.756Z,29.46
2018-06-20T13:43:12.352Z,29.32
2018-06-20T13:45:45.955Z,30.25
2018-06-20T13:48:19.519Z,31.12
2018-06-20T13:50:47.741Z,30.00
2018-06-20T13:53:15.855Z,30.17
2018-06-20T13:55:43.960Z,30.28
2018-06-20T13:58:13.579Z,30.39
2018-06-20T14:00:42.371Z,29.82
2018-06-20T14:03:10.460Z,30.31
2018-06-20T14:05:38.627Z,30.05
2018-06-20T14:08:06.563Z,31.06
2018-06-20T14:10:34.491Z,31.25
2018-06-20T14:13:03.009Z,31.21
2018-06-20T14:15:33.180Z,31.15
2018-06-20T14:18:01.128Z,31.84
2018-06-20T14:20:34.497Z,31.68
2018-06-20T14:23:02.519Z,31.98
2018-06-20T14:25:31.018Z,32.01
2018-06-20T14:27:59.062Z,32.47
2018-06-20T14:30:32.371Z,32.15
2018-06-20T14:33:05.825Z,32.66
2018-06-20T14:35:39.151Z,32.43
2018-06-20T14:38:12.586Z,33.00
2018-06-20T14:40:45.982Z,32.70
2018-06-20T14:43:19.458Z,32.23
2018-06-20T14:45:52.806Z,31.84
2018-06-20T14:50:54.658Z,31.98
2018-06-20T14:53:22.591Z,31.59
2018-06-20T14:55:50.550Z,31.53
2018-06-20T14:58:18.495Z,31.68
2018-06-20T15:00:46.464Z,32.93
2018-06-20T15:03:15.015Z,32.62
2018-06-20T15:05:43.066Z,32.40
2018-06-20T15:08:11.128Z,33.07
2018-06-20T15:10:39.108Z,33.25
2018-06-20T15:13:07.027Z,33.10
2018-06-20T15:15:34.994Z,33.41
2018-06-20T15:18:03.048Z,33.79
2018-06-20T15:20:31.061Z,33.55
2018-06-20T15:22:59.001Z,32.66
2018-06-20T15:25:32.585Z,33.61
2018-06-20T15:28:06.069Z,33.92
2018-06-20T15:30:39.350Z,35.51
2018-06-20T15:33:12.777Z,35.46
2018-06-20T15:35:46.165Z,35.29
2018-06-20T15:38:17.568Z,34.52
2018-06-20T15:40:45.930Z,33.33
2018-06-20T15:43:14.176Z,31.91
2018-06-20T15:45:42.175Z,31.52
2018-06-20T15:48:10.179Z,29.69
2018-06-20T15:50:38.370Z,29.53
2018-06-20T15:53:06.391Z,29.09
2018-06-20T15:55:34.362Z,28.18
2018-06-20T15:58:02.391Z,27.16
2018-06-20T16:00:30.362Z,27.03
2018-06-20T16:02:58.582Z,27.15
2018-06-20T16:05:26.777Z,26.82
2018-06-20T16:07:54.715Z,26.72
2018-06-20T16:10:22.671Z,26.58
2018-06-20T16:12:50.644Z,26.61
2018-06-20T16:15:18.776Z,26.50
2018-06-20T16:17:46.717Z,26.48
2018-06-20T16:20:20.069Z,26.03
2018-06-20T16:22:53.527Z,25.85
2018-06-20T16:25:27.497Z,25.86
2018-06-20T16:28:01.025Z,25.86
2018-06-20T16:30:33.440Z,25.79
2018-06-20T16:33:01.393Z,25.76
2018-06-20T16:35:29.320Z,25.26
2018-06-20T16:37:57.365Z,25.26
2018-06-20T16:40:25.439Z,25.11
2018-06-20T16:42:56.929Z,25.20
2018-06-20T16:45:25.511Z,25.14
2018-06-20T16:47:53.445Z,25.07
2018-06-20T16:50:21.508Z,25.16
2018-06-20T16:52:50.766Z,24.94
2018-06-20T16:55:19.583Z,24.89
2018-06-20T16:57:48.755Z,24.77
2018-06-20T17:00:16.707Z,24.77
2018-06-20T17:02:44.883Z,24.59
2018-06-20T17:05:13.299Z,24.58
2018-06-20T17:07:41.656Z,24.54
2018-06-20T17:10:09.799Z,24.34
2018-06-20T17:14:51.003Z,24.42
2018-06-20T17:17:24.280Z,24.12
2018-06-20T17:19:57.887Z,24.09
2018-06-20T17:22:31.379Z,23.90
2018-06-20T17:25:05.271Z,23.92
2018-06-20T17:27:33.444Z,24.03
2018-06-20T17:30:01.566Z,23.96
2018-06-20T17:32:29.625Z,23.65
2018-06-20T17:34:57.616Z,23.32
2018-06-20T17:37:26.274Z,23.07
2018-06-20T17:39:55.074Z,22.76
2018-06-20T17:42:27.086Z,22.56
2018-06-20T17:44:55.956Z,22.37
2018-06-20T17:47:24.895Z,22.15
2018-06-20T17:49:54.143Z,21.99
2018-06-20T17:52:23.932Z,21.85
2018-06-20T17:54:53.235Z,21.38
2018-06-20T17:57:21.433Z,21.20
2018-06-20T17:59:49.491Z,21.10
2018-06-20T18:02:17.814Z,21.16
2018-06-20T18:04:54.291Z,20.84
2018-06-20T18:07:27.872Z,20.73
2018-06-20T18:10:01.522Z,20.68
2018-06-20T18:12:32.352Z,20.55
2018-06-20T18:15:06.612Z,20.43
2018-06-20T18:17:37.263Z,20.19
2018-06-20T18:20:06.192Z,20.10
2018-06-20T18:22:34.336Z,19.81
2018-06-20T18:25:02.557Z,19.51
2018-06-20T18:27:30.840Z,19.52
2018-06-20T18:29:59.940Z,19.31
2018-06-20T18:32:29.484Z,19.26
2018-06-20T18:34:57.608Z,19.34
2018-06-20T18:37:27.127Z,19.24
2018-06-20T18:40:00.899Z,18.97
2018-06-20T18:42:29.377Z,19.02
2018-06-20T18:44:58.488Z,19.21
2018-06-20T18:47:33.029Z,18.95
2018-06-20T18:50:01.431Z,19.01
2018-06-20T18:52:30.546Z,19.03
2018-06-20T18:54:58.747Z,19.11
2018-06-20T18:57:32.479Z,18.96
2018-06-20T19:00:06.961Z,18.94
2018-06-20T19:02:40.481Z,18.69
2018-06-20T19:05:14.180Z,18.75
2018-06-20T19:07:47.680Z,18.79
2018-06-20T19:10:15.774Z,18.54
2018-06-20T19:12:43.855Z,18.28
2018-06-20T19:15:11.843Z,18.12
2018-06-20T19:17:40.181Z,18.26
2018-06-20T19:20:08.191Z,18.28
2018-06-20T19:22:36.549Z,18.17
2018-06-20T19:25:04.991Z,18.25
2018-06-20T19:27:33.364Z,17.98
2018-06-20T19:30:01.644Z,18.00
2018-06-20T19:32:29.826Z,18.10
2018-06-20T19:34:58.720Z,18.18
2018-06-20T19:37:26.643Z,18.08
2018-06-20T19:39:55.213Z,18.16
2018-06-20T19:42:24.479Z,18.17
2018-06-20T19:44:52.684Z,17.99
2018-06-20T19:47:20.654Z,17.87
2018-06-20T19:49:48.809Z,17.90
2018-06-20T19:52:17.073Z,17.98
2018-06-20T19:54:45.314Z,18.06
2018-06-20T19:57:13.320Z,18.10
2018-06-20T19:59:47.575Z,18.02
2018-06-20T20:02:23.223Z,18.09
2018-06-20T20:04:57.255Z,18.01
2018-06-20T20:07:31.284Z,18.13
2018-06-20T20:10:05.251Z,18.05
2018-06-20T20:12:39.424Z,18.09
2018-06-20T20:15:13.534Z,17.90
2018-06-20T20:17:47.703Z,17.98
2018-06-20T20:20:27.116Z,17.96
2018-06-20T20:23:01.329Z,18.01
2018-06-20T20:25:35.497Z,17.95
2018-06-20T20:28:09.532Z,17.71
2018-06-20T20:30:43.591Z,17.65
2018-06-20T20:33:17.537Z,17.53
2018-06-20T20:35:51.633Z,17.26
2018-06-20T20:38:25.880Z,17.16
2018-06-20T20:41:00.083Z,17.07
2018-06-20T20:43:34.072Z,16.95
2018-06-20T20:46:08.037Z,17.04
2018-06-20T20:48:42.010Z,17.06
2018-06-20T20:51:15.928Z,17.14
2018-06-20T20:53:49.899Z,17.26
2018-06-20T20:56:24.025Z,17.41
2018-06-20T20:58:57.933Z,17.53
2018-06-20T21:01:32.068Z,17.39
2018-06-20T21:04:06.259Z,17.30
2018-06-20T21:06:40.342Z,17.40
2018-06-20T21:09:14.250Z,17.34
2018-06-20T21:11:48.392Z,17.50
2018-06-20T21:14:22.636Z,17.69
2018-06-20T21:16:56.652Z,17.78
2018-06-20T21:19:30.704Z,17.74
2018-06-20T21:22:04.684Z,17.76
2018-06-20T21:24:39.198Z,17.83
2018-06-20T21:27:14.223Z,17.88
2018-06-20T21:29:49.721Z,17.79
2018-06-20T21:32:24.215Z,17.80
2018-06-20T21:34:59.130Z,17.77
2018-06-20T21:37:33.269Z,17.78
2018-06-20T21:40:10.012Z,17.94
2018-06-20T21:42:44.393Z,17.93
2018-06-20T21:45:18.999Z,17.95
2018-06-20T21:47:53.172Z,17.98
2018-06-20T21:50:27.784Z,17.97
2018-06-20T21:53:01.739Z,17.86
2018-06-20T21:55:35.819Z,17.84
2018-06-20T21:58:10.049Z,17.60
2018-06-20T22:00:45.596Z,17.59
2018-06-20T22:03:19.590Z,17.75
2018-06-20T22:05:53.515Z,17.78
2018-06-20T22:08:27.492Z,17.79
2018-06-20T22:11:01.405Z,17.67
2018-06-20T22:13:35.726Z,17.80
2018-06-20T22:16:09.996Z,17.73
2018-06-20T22:18:44.110Z,17.61
2018-06-20T22:21:18.036Z,17.52
2018-06-20T22:23:52.001Z,17.36
2018-06-20T22:26:26.083Z,17.31
2018-06-20T22:29:00.094Z,17.27
2018-06-20T22:31:34.151Z,17.11
2018-06-20T22:34:08.247Z,16.97
2018-06-20T22:36:42.313Z,16.98
2018-06-20T22:39:16.367Z,17.06
2018-06-20T22:41:50.343Z,17.05
2018-06-20T22:44:24.366Z,16.95
2018-06-20T22:46:58.367Z,16.90
2018-06-20T22:49:32.363Z,16.71
2018-06-20T22:52:06.325Z,16.60
2018-06-20T22:54:40.234Z,16.34
2018-06-20T22:57:14.178Z,15.90
2018-06-20T22:59:48.269Z,15.76
2018-06-20T23:02:22.180Z,16.05
2018-06-20T23:04:56.199Z,16.14
2018-06-20T23:07:30.218Z,16.26
2018-06-20T23:10:04.531Z,16.36
2018-06-20T23:12:38.428Z,16.39
2018-06-20T23:15:12.431Z,16.21
2018-06-20T23:17:46.474Z,15.72
2018-06-20T23:20:20.480Z,15.48
2018-06-20T23:22:54.372Z,15.47
2018-06-20T23:25:28.393Z,15.76
2018-06-20T23:28:02.462Z,15.84
2018-06-20T23:30:36.413Z,15.70
2018-06-20T23:33:10.434Z,15.55
2018-06-20T23:35:44.580Z,15.39
2018-06-20T23:38:18.667Z,15.47
2018-06-20T23:40:52.727Z,15.33
2018-06-20T23:43:26.734Z,15.02
2018-06-20T23:46:00.690Z,14.86
2018-06-20T23:48:34.628Z,14.73
2018-06-20T23:51:08.823Z,14.98
2018-06-20T23:53:42.987Z,14.95
2018-06-20T23:56:16.982Z,14.88
2018-06-20T23:58:51.009Z,14.86
